Airfield :
LOGIN :

Register | Disclaimer

   EN    FR    IT 

 










Legend :    VFR   Marginal VFR   IFR   Intensive IFR   Very Intensive IFR
Visi :
Ceiling :
>= 8 km
>= 3000ft
5 to 8 km
1000 to 3000 ft
1500m to 5 km
500 to 1000 ft
800 to 1500m
200 to 500 ft
< 800m
< 200 ft
Symbols :   Thunderstorms  Fog  Heavy snow  Heavy precipitations  Wind > 20 kt
SIGMETs :     Misc.  Thunderstorms  Icing  Turbulence  Mountain Waves  Volcanic Ashes







- Airport Elevation : 124 ft
- IATA code : NHT
- Download approach charts


EGWU - RAF Northolt

CURRENT METAR :
  • 152050Z AUTO 08004KT 6000 // OVC003/// 13/13 Q1014

EXPIRED METARs :
  • 151950Z AUTO 06003KT 9999 // BKN004/// 13/12 Q1014
  • 151850Z AUTO 03008KT 8000 // OVC004/// 13/13 Q1014

TAF TAF EGWU
Valid from the 15 at 18:00 until the 16 at 12:00 UTC


151633Z 1518/1612 05006KT 5000 BR BKN004
TEMPO 1518/1607 3000 -DZ BKN002
PROB30
TEMPO 1521/1603 1200 -DZ BKN001
PROB30
TEMPO 1603/1607 0500 FG BKN000
BECMG 1607/1609 FEW010
BECMG 1609/1612 9999 NSW
TEMPO 1610/1612 SCT018
No reported NOTAMs for that airfield.



MET'MAP, your aeronautical weather chart ! - Copyright ORBIFLY December 2007 - Disclaimer

ORBIFLY MET'MAP TEAM :

Programming & Development : Alexandra Zaïnal
Concept & Development : Baudouin d'Aumeries
Co-Development & Prog : Marc-Olivier Méhu
Technical & hardware support : Manuel Goepfert

Contact : metmap@orbifly.com




SOURCES & CREDITS :

   NOAA